createdAt,value
2023-09-12T00:02:18.026Z,25.53
2023-09-12T00:04:45.403Z,25.53
2023-09-12T00:07:12.749Z,25.57
2023-09-12T00:09:40.002Z,25.57
2023-09-12T00:12:07.642Z,25.58
2023-09-12T00:14:34.947Z,25.56
2023-09-12T00:17:02.307Z,25.62
2023-09-12T00:19:29.615Z,25.59
2023-09-12T00:21:56.817Z,25.54
2023-09-12T00:24:24.078Z,25.62
2023-09-12T00:26:51.301Z,25.61
2023-09-12T00:29:18.528Z,25.58
2023-09-12T00:31:45.811Z,25.61
2023-09-12T00:34:18.201Z,25.53
2023-09-12T00:36:45.810Z,25.61
2023-09-12T00:39:13.076Z,25.61
2023-09-12T00:41:40.349Z,25.59
2023-09-12T00:44:07.773Z,25.59
2023-09-12T00:46:36.245Z,25.59
2023-09-12T00:49:05.001Z,25.62
2023-09-12T00:51:33.180Z,25.59
2023-09-12T00:54:00.542Z,25.59
2023-09-12T00:56:28.208Z,25.61
2023-09-12T00:58:56.380Z,25.61
2023-09-12T01:01:23.753Z,25.59
2023-09-12T01:03:51.542Z,25.63
2023-09-12T01:06:21.041Z,25.63
2023-09-12T01:08:48.521Z,25.61
2023-09-12T01:11:15.861Z,25.60
2023-09-12T01:13:43.039Z,25.60
2023-09-12T01:16:10.279Z,25.63
2023-09-12T01:18:38.088Z,25.60
2023-09-12T01:21:43.535Z,25.62
2023-09-12T01:24:35.798Z,25.62
2023-09-12T01:27:27.094Z,25.60
2023-09-12T01:29:58.745Z,25.57
2023-09-12T01:32:26.096Z,25.58
2023-09-12T01:34:53.359Z,25.55
2023-09-12T01:37:20.561Z,25.56
2023-09-12T01:39:47.847Z,25.60
2023-09-12T01:42:17.669Z,25.60
2023-09-12T01:44:45.723Z,25.59
2023-09-12T01:47:13.645Z,25.57
2023-09-12T01:49:47.481Z,25.56
2023-09-12T01:52:15.750Z,25.57
2023-09-12T01:54:44.027Z,25.56
2023-09-12T01:57:11.628Z,25.58
2023-09-12T01:59:38.979Z,25.56
2023-09-12T02:02:06.157Z,25.56
2023-09-12T02:04:33.348Z,25.55
2023-09-12T02:07:00.599Z,25.56
2023-09-12T02:09:27.830Z,25.53
2023-09-12T02:11:55.074Z,25.58
2023-09-12T02:14:22.723Z,25.54
2023-09-12T02:16:50.025Z,25.57
2023-09-12T02:19:17.271Z,25.52
2023-09-12T02:21:44.572Z,25.55
2023-09-12T02:24:11.876Z,25.55
2023-09-12T02:26:39.073Z,25.52
2023-09-12T02:29:07.223Z,25.53
2023-09-12T02:31:34.542Z,25.54
2023-09-12T02:34:01.818Z,25.52
2023-09-12T02:36:30.180Z,25.53
2023-09-12T02:38:57.454Z,25.51
2023-09-12T02:41:24.685Z,25.50
2023-09-12T02:43:51.961Z,25.50
2023-09-12T02:46:19.164Z,25.54
2023-09-12T02:48:46.584Z,25.50
2023-09-12T02:51:14.081Z,25.53
2023-09-12T02:53:41.483Z,25.50
2023-09-12T02:56:08.695Z,25.52
2023-09-12T02:58:35.885Z,25.51
2023-09-12T03:01:04.593Z,25.50
2023-09-12T03:03:32.067Z,25.53
2023-09-12T03:06:00.532Z,25.50
2023-09-12T03:08:27.799Z,25.46
2023-09-12T03:10:58.409Z,25.46
2023-09-12T03:13:26.705Z,25.51
2023-09-12T03:15:54.180Z,25.50
2023-09-12T03:18:21.648Z,25.48
2023-09-12T03:20:48.947Z,25.50
2023-09-12T03:23:16.147Z,25.50
2023-09-12T03:25:43.377Z,25.50
2023-09-12T03:28:10.618Z,25.48
2023-09-12T03:30:38.792Z,25.46
2023-09-12T03:33:06.752Z,25.47
2023-09-12T03:35:34.781Z,25.47
2023-09-12T03:38:02.363Z,25.46
2023-09-12T03:40:32.782Z,25.42
2023-09-12T03:43:00.093Z,25.44
2023-09-12T03:45:27.359Z,25.43
2023-09-12T03:47:54.585Z,25.45
2023-09-12T03:50:21.830Z,25.46
2023-09-12T03:52:49.051Z,25.46
2023-09-12T03:55:16.346Z,25.45
2023-09-12T03:57:43.777Z,25.46
2023-09-12T04:00:11.394Z,25.48
2023-09-12T04:02:38.716Z,25.45
2023-09-12T04:05:06.099Z,25.47
2023-09-12T04:07:33.280Z,25.48
2023-09-12T04:10:00.539Z,25.43
2023-09-12T04:12:27.797Z,25.49
2023-09-12T04:14:56.164Z,25.40
2023-09-12T04:17:23.459Z,25.46
2023-09-12T04:19:50.660Z,25.45
2023-09-12T04:22:17.874Z,25.42
2023-09-12T04:24:45.106Z,25.42
2023-09-12T04:27:12.405Z,25.41
2023-09-12T04:29:40.265Z,25.42
2023-09-12T04:32:07.758Z,25.41
2023-09-12T04:34:36.467Z,25.40
2023-09-12T04:37:07.465Z,25.46
2023-09-12T04:39:34.920Z,25.43
2023-09-12T04:42:02.115Z,25.46
2023-09-12T04:44:29.299Z,25.41
2023-09-12T04:46:56.498Z,25.41
2023-09-12T04:49:23.753Z,25.47
2023-09-12T04:51:50.963Z,25.42
2023-09-12T04:54:18.305Z,25.42
2023-09-12T04:56:45.519Z,25.44
2023-09-12T04:59:12.701Z,25.48
2023-09-12T05:01:39.896Z,25.45
2023-09-12T05:04:07.204Z,25.35
2023-09-12T05:06:34.812Z,25.25
2023-09-12T05:09:02.153Z,25.15
2023-09-12T05:11:29.366Z,25.16
2023-09-12T05:13:56.578Z,25.22
2023-09-12T05:16:23.800Z,25.24
2023-09-12T05:18:52.050Z,25.09
2023-09-12T05:21:19.372Z,25.04
2023-09-12T05:23:46.601Z,25.02
2023-09-12T05:26:13.788Z,24.96
2023-09-12T05:28:41.573Z,24.91
2023-09-12T05:31:09.044Z,24.87
2023-09-12T05:33:36.291Z,24.87
2023-09-12T05:36:04.215Z,24.93
2023-09-12T05:38:31.489Z,24.96
2023-09-12T05:40:58.822Z,25.00
2023-09-12T05:43:26.008Z,24.97
2023-09-12T05:45:54.119Z,24.89
2023-09-12T05:48:21.420Z,24.87
2023-09-12T05:50:48.634Z,24.74
2023-09-12T05:53:15.908Z,24.53
2023-09-12T05:55:43.139Z,24.49
2023-09-12T05:58:10.381Z,23.75
2023-09-12T06:00:37.593Z,23.30
2023-09-12T06:03:05.108Z,24.02
2023-09-12T06:05:32.905Z,24.34
2023-09-12T06:08:00.822Z,23.40
2023-09-12T06:10:28.122Z,23.61
2023-09-12T06:12:55.320Z,24.20
2023-09-12T06:15:22.588Z,24.34
2023-09-12T06:17:49.845Z,24.18
2023-09-12T06:20:17.046Z,24.35
2023-09-12T06:22:44.747Z,24.26
2023-09-12T06:25:11.988Z,24.50
2023-09-12T06:27:39.208Z,24.28
2023-09-12T06:30:07.116Z,24.50
2023-09-12T06:32:34.365Z,24.67
2023-09-12T06:35:01.659Z,24.61
2023-09-12T06:37:28.852Z,24.77
2023-09-12T06:39:56.053Z,24.58
2023-09-12T06:42:23.279Z,24.61
2023-09-12T06:44:50.496Z,24.74
2023-09-12T06:47:17.668Z,24.69
2023-09-12T06:49:47.358Z,24.83
2023-09-12T06:52:17.336Z,25.00
2023-09-12T06:54:44.725Z,25.44
2023-09-12T06:57:12.249Z,28.26
2023-09-12T06:59:40.113Z,29.17
2023-09-12T07:02:08.522Z,29.07
2023-09-12T07:04:35.770Z,29.63
2023-09-12T07:07:03.649Z,29.66
2023-09-12T07:09:31.504Z,29.42
2023-09-12T07:11:59.073Z,29.71
2023-09-12T07:14:34.693Z,29.54
2023-09-12T07:17:02.068Z,29.08
2023-09-12T07:19:29.532Z,28.73
2023-09-12T07:21:58.049Z,28.09
2023-09-12T07:24:28.906Z,27.58
2023-09-12T07:26:56.407Z,27.61
2023-09-12T07:29:23.867Z,27.77
2023-09-12T07:31:57.851Z,27.24
2023-09-12T07:34:26.541Z,27.73
2023-09-12T07:36:54.949Z,28.12
2023-09-12T07:39:22.262Z,28.39
2023-09-12T07:41:49.512Z,28.63
2023-09-12T07:44:17.639Z,29.15
2023-09-12T07:46:45.550Z,29.63
2023-09-12T07:49:12.791Z,29.59
2023-09-12T07:51:40.025Z,30.03
2023-09-12T07:54:07.316Z,30.38
2023-09-12T07:56:34.565Z,31.58
2023-09-12T07:59:01.744Z,31.64
2023-09-12T08:01:29.054Z,30.67
2023-09-12T08:03:56.446Z,30.77
2023-09-12T08:06:25.274Z,30.91
2023-09-12T08:08:52.508Z,31.82
2023-09-12T08:11:19.721Z,31.08
2023-09-12T08:13:50.765Z,31.20
2023-09-12T08:16:18.213Z,30.84
2023-09-12T08:18:45.466Z,31.13
2023-09-12T08:21:12.916Z,31.90
2023-09-12T08:23:40.239Z,31.24
2023-09-12T08:26:07.451Z,30.34
2023-09-12T08:28:34.643Z,30.22
2023-09-12T08:31:01.799Z,30.64
2023-09-12T08:33:29.071Z,30.97
2023-09-12T08:35:56.348Z,30.36
2023-09-12T08:38:25.179Z,27.75
2023-09-12T08:40:52.479Z,27.02
2023-09-12T08:43:20.135Z,26.81
2023-09-12T08:45:48.520Z,26.45
2023-09-12T08:48:17.187Z,26.42
2023-09-12T08:50:45.236Z,26.24
2023-09-12T08:53:12.465Z,26.16
2023-09-12T08:55:39.861Z,26.14
2023-09-12T08:58:08.180Z,26.13
2023-09-12T09:00:36.914Z,26.19
2023-09-12T09:03:04.565Z,26.14
2023-09-12T09:05:32.576Z,26.20
2023-09-12T09:08:00.730Z,26.13
2023-09-12T09:10:47.070Z,25.90
2023-09-12T09:13:17.867Z,25.90
2023-09-12T09:15:45.180Z,25.92
2023-09-12T09:18:13.916Z,25.81
2023-09-12T09:20:42.259Z,25.86
2023-09-12T09:23:11.001Z,25.96
2023-09-12T09:25:42.477Z,26.11
2023-09-12T09:28:20.550Z,25.99
2023-09-12T09:30:50.118Z,25.78
2023-09-12T09:33:17.487Z,25.93
2023-09-12T09:35:48.255Z,25.93
2023-09-12T09:38:17.665Z,25.68
2023-09-12T09:40:45.432Z,25.77
2023-09-12T09:43:12.796Z,26.01
2023-09-12T09:45:47.302Z,25.91
2023-09-12T09:48:22.223Z,26.17
2023-09-12T09:50:50.122Z,26.14
2023-09-12T09:53:17.565Z,26.01
2023-09-12T09:55:45.048Z,26.44
2023-09-12T09:58:19.956Z,26.38
2023-09-12T10:00:49.523Z,26.35
2023-09-12T10:03:20.865Z,26.34
2023-09-12T10:05:49.587Z,26.32
2023-09-12T10:08:18.351Z,26.40
2023-09-12T10:10:45.588Z,26.56
2023-09-12T10:13:13.173Z,26.50
2023-09-12T10:15:40.777Z,26.41
2023-09-12T10:20:49.400Z,26.51
2023-09-12T10:23:28.958Z,26.52
2023-09-12T10:25:56.832Z,26.42
2023-09-12T10:28:24.310Z,26.59
2023-09-12T10:30:51.595Z,26.55
2023-09-12T10:33:19.368Z,26.54
2023-09-12T10:35:47.435Z,26.53
2023-09-12T10:38:15.461Z,26.34
2023-09-12T10:40:44.579Z,26.18
2023-09-12T10:43:12.731Z,26.33
2023-09-12T10:45:41.994Z,26.32
2023-09-12T10:48:12.179Z,26.46
2023-09-12T10:50:40.818Z,26.43
2023-09-12T10:53:16.538Z,26.39
2023-09-12T10:55:43.988Z,26.41
2023-09-12T10:58:12.258Z,26.50
2023-09-12T11:00:40.838Z,26.57
2023-09-12T11:03:38.606Z,26.52
2023-09-12T11:06:06.888Z,26.59
2023-09-12T11:08:38.447Z,26.61
2023-09-12T11:11:22.206Z,26.63
2023-09-12T11:14:05.116Z,26.58
2023-09-12T11:16:32.780Z,26.61
2023-09-12T11:19:19.713Z,26.66
2023-09-12T11:21:54.236Z,26.64
2023-09-12T11:24:22.376Z,26.58
2023-09-12T11:27:00.769Z,26.56
2023-09-12T11:29:38.683Z,26.62
2023-09-12T11:32:06.917Z,26.57
2023-09-12T11:34:40.017Z,26.55
2023-09-12T11:37:07.274Z,26.53
2023-09-12T11:39:36.793Z,26.74
2023-09-12T11:42:05.200Z,26.72
2023-09-12T11:44:33.245Z,26.80
2023-09-12T11:47:04.317Z,26.71
2023-09-12T11:49:41.704Z,26.69
2023-09-12T11:52:14.601Z,26.66
2023-09-12T11:54:42.750Z,26.69
2023-09-12T11:57:15.728Z,26.65
2023-09-12T11:59:49.992Z,26.68
2023-09-12T12:02:17.606Z,26.70
2023-09-12T12:04:45.061Z,26.65
2023-09-12T12:07:12.928Z,26.67
2023-09-12T12:09:40.578Z,26.81
2023-09-12T12:12:11.989Z,26.75
2023-09-12T12:14:41.058Z,26.73
2023-09-12T12:17:12.403Z,26.68
2023-09-12T12:19:40.349Z,26.73
2023-09-12T12:22:09.094Z,26.81
2023-09-12T12:24:41.863Z,26.81
2023-09-12T12:27:09.539Z,26.84
2023-09-12T12:29:37.610Z,26.90
2023-09-12T12:32:06.464Z,26.86
2023-09-12T12:35:28.008Z,26.84
2023-09-12T12:37:21.415Z,26.93
2023-09-12T12:39:49.003Z,27.39
2023-09-12T12:42:16.276Z,27.00
2023-09-12T12:44:43.488Z,27.00
2023-09-12T12:47:12.979Z,27.07
2023-09-12T12:49:41.117Z,27.06
2023-09-12T12:52:12.188Z,26.98
2023-09-12T12:54:40.213Z,27.05
2023-09-12T12:57:07.461Z,27.15
2023-09-12T12:59:37.412Z,27.22
2023-09-12T13:02:04.774Z,27.29
2023-09-12T13:04:39.227Z,27.32
2023-09-12T13:07:06.980Z,27.32
2023-09-12T13:09:34.915Z,27.30
2023-09-12T13:12:02.271Z,27.28
2023-09-12T13:14:32.273Z,27.32
2023-09-12T13:17:00.310Z,27.31
2023-09-12T13:19:28.052Z,27.28
2023-09-12T13:21:55.352Z,27.34
2023-09-12T13:24:22.595Z,27.35
2023-09-12T13:26:50.101Z,27.33
2023-09-12T13:29:17.448Z,27.31
2023-09-12T13:31:44.918Z,27.31
2023-09-12T13:34:12.332Z,27.32
2023-09-12T13:36:39.685Z,27.28
2023-09-12T13:39:09.458Z,27.27
2023-09-12T13:41:37.404Z,27.22
2023-09-12T13:44:05.003Z,27.18
2023-09-12T13:46:32.355Z,27.16
2023-09-12T13:49:01.761Z,27.19
2023-09-12T13:51:29.381Z,27.23
2023-09-12T13:53:56.602Z,27.22
2023-09-12T13:56:24.685Z,27.22
2023-09-12T13:58:52.068Z,27.23
2023-09-12T14:01:32.071Z,27.21
2023-09-12T14:04:03.456Z,27.15
2023-09-12T14:06:31.626Z,27.16
2023-09-12T14:08:59.481Z,27.24
2023-09-12T14:11:33.049Z,27.27
2023-09-12T14:16:34.681Z,27.29
2023-09-12T14:19:02.262Z,27.27
2023-09-12T14:21:31.192Z,27.13
2023-09-12T14:23:59.244Z,26.98
2023-09-12T14:26:26.770Z,26.93
2023-09-12T14:28:55.068Z,26.85
2023-09-12T14:31:24.137Z,26.79
2023-09-12T14:33:53.614Z,26.78
2023-09-12T14:36:20.994Z,26.80
2023-09-12T14:38:48.229Z,26.95
2023-09-12T14:41:15.662Z,27.06
2023-09-12T14:43:43.069Z,27.06
2023-09-12T14:46:11.197Z,27.06
2023-09-12T14:48:40.863Z,27.02
2023-09-12T14:51:09.966Z,27.03
2023-09-12T14:53:37.428Z,27.01
2023-09-12T14:56:04.669Z,26.94
2023-09-12T14:58:31.861Z,26.94
2023-09-12T15:00:59.959Z,27.02
2023-09-12T15:03:27.723Z,26.99
2023-09-12T15:05:54.960Z,26.99
2023-09-12T15:08:22.144Z,27.01
2023-09-12T15:10:49.511Z,26.93
2023-09-12T15:13:16.839Z,26.90
2023-09-12T15:15:44.145Z,26.87
2023-09-12T15:18:11.470Z,26.86
2023-09-12T15:20:38.690Z,26.81
2023-09-12T15:23:06.551Z,26.84
2023-09-12T15:25:33.746Z,26.85
2023-09-12T15:28:00.972Z,26.85
2023-09-12T15:30:28.331Z,26.86
2023-09-12T15:32:55.548Z,26.86
2023-09-12T15:35:22.906Z,26.90
2023-09-12T15:37:52.225Z,26.90
2023-09-12T15:40:19.389Z,26.88
2023-09-12T15:42:47.787Z,26.95
2023-09-12T15:45:17.052Z,26.90
2023-09-12T15:47:46.659Z,26.90
2023-09-12T15:50:15.171Z,26.90
2023-09-12T15:52:43.831Z,26.92
2023-09-12T15:55:12.225Z,26.91
2023-09-12T15:57:39.956Z,26.91
2023-09-12T16:00:11.041Z,26.87
2023-09-12T16:02:42.182Z,26.88
2023-09-12T16:05:10.055Z,26.90
2023-09-12T16:07:37.775Z,26.89
2023-09-12T16:10:05.326Z,26.87
2023-09-12T16:12:32.619Z,26.83
2023-09-12T16:14:59.923Z,26.78
2023-09-12T16:17:27.150Z,26.81
2023-09-12T16:19:55.416Z,26.82
2023-09-12T16:22:22.647Z,26.78
2023-09-12T16:24:49.887Z,26.81
2023-09-12T16:27:18.332Z,26.80
2023-09-12T16:29:45.574Z,26.70
2023-09-12T16:32:12.774Z,26.66
2023-09-12T16:34:40.186Z,26.69
2023-09-12T16:37:07.503Z,26.63
2023-09-12T16:39:36.818Z,26.61
2023-09-12T16:42:04.120Z,26.65
2023-09-12T16:44:31.320Z,26.64
2023-09-12T16:46:58.545Z,26.66
2023-09-12T16:49:26.058Z,26.63
2023-09-12T16:51:53.318Z,26.60
2023-09-12T16:54:20.559Z,26.55
2023-09-12T16:56:47.774Z,26.55
2023-09-12T16:59:15.003Z,26.56
2023-09-12T17:01:42.232Z,26.57
2023-09-12T17:04:11.082Z,26.55
2023-09-12T17:06:38.476Z,26.59
2023-09-12T17:09:05.998Z,26.56
2023-09-12T17:11:33.198Z,26.57
2023-09-12T17:14:00.456Z,26.55
2023-09-12T17:16:27.706Z,26.56
2023-09-12T17:18:55.093Z,26.53
2023-09-12T17:21:22.370Z,26.50
2023-09-12T17:23:49.555Z,26.53
2023-09-12T17:26:17.885Z,26.52
2023-09-12T17:28:45.104Z,26.51
2023-09-12T17:31:13.275Z,26.49
2023-09-12T17:33:40.506Z,26.50
2023-09-12T17:36:07.874Z,26.51
2023-09-12T17:38:35.106Z,26.47
2023-09-12T17:41:02.592Z,26.52
2023-09-12T17:43:31.018Z,26.48
2023-09-12T17:46:10.171Z,26.48
2023-09-12T17:48:41.270Z,26.44
2023-09-12T17:51:08.787Z,26.45
2023-09-12T17:53:35.955Z,26.45
2023-09-12T17:56:03.146Z,26.41
2023-09-12T17:58:30.328Z,26.42
2023-09-12T18:01:02.488Z,26.40
2023-09-12T18:03:32.452Z,26.37
2023-09-12T18:06:00.328Z,26.38
2023-09-12T18:08:27.558Z,26.32
2023-09-12T18:10:54.750Z,26.30
2023-09-12T18:13:21.996Z,26.27
2023-09-12T18:15:49.285Z,26.27
2023-09-12T18:18:16.581Z,26.25
2023-09-12T18:20:43.782Z,26.22
2023-09-12T18:23:10.995Z,26.22
2023-09-12T18:25:38.181Z,26.19
2023-09-12T18:28:06.371Z,26.17
2023-09-12T18:30:33.685Z,26.15
2023-09-12T18:33:00.972Z,26.05
2023-09-12T18:35:28.226Z,26.13
2023-09-12T18:37:55.663Z,26.11
2023-09-12T18:40:23.396Z,26.12
2023-09-12T18:42:50.620Z,26.06
2023-09-12T18:45:17.852Z,25.89
2023-09-12T18:47:45.181Z,25.84
2023-09-12T18:50:12.424Z,25.67
2023-09-12T18:52:53.775Z,25.87
2023-09-12T18:55:23.916Z,25.78
2023-09-12T18:57:51.253Z,25.80
2023-09-12T19:00:18.760Z,25.65
2023-09-12T19:02:46.870Z,25.71
2023-09-12T19:05:14.379Z,25.50
2023-09-12T19:07:41.700Z,25.72
2023-09-12T19:10:11.485Z,25.80
2023-09-12T19:12:38.843Z,25.68
2023-09-12T19:15:06.612Z,25.62
2023-09-12T19:17:34.003Z,25.53
2023-09-12T19:20:01.298Z,25.67
2023-09-12T19:22:28.537Z,25.71
2023-09-12T19:24:55.742Z,25.35
2023-09-12T19:27:23.330Z,25.49
2023-09-12T19:29:52.758Z,25.69
2023-09-12T19:32:19.938Z,25.52
2023-09-12T19:34:47.115Z,25.57
2023-09-12T19:37:14.337Z,25.30
2023-09-12T19:39:41.597Z,25.31
2023-09-12T19:42:10.117Z,25.40
2023-09-12T19:44:37.332Z,25.31
2023-09-12T19:47:05.293Z,25.30
2023-09-12T19:49:32.806Z,25.18
2023-09-12T19:52:00.075Z,25.14
2023-09-12T19:54:27.277Z,25.10
2023-09-12T19:56:54.452Z,25.20
2023-09-12T19:59:21.705Z,25.35
2023-09-12T20:01:49.943Z,25.18
2023-09-12T20:04:17.580Z,25.21
2023-09-12T20:06:44.941Z,25.18
2023-09-12T20:09:12.610Z,25.33
2023-09-12T20:11:41.146Z,25.51
2023-09-12T20:14:11.501Z,25.61
2023-09-12T20:16:39.530Z,25.62
2023-09-12T20:19:09.023Z,25.57
2023-09-12T20:21:36.661Z,25.58
2023-09-12T20:24:08.150Z,25.51
2023-09-12T20:26:35.808Z,25.45
2023-09-12T20:29:03.084Z,25.50
2023-09-12T20:31:30.357Z,25.51
2023-09-12T20:33:58.025Z,25.48
2023-09-12T20:36:30.449Z,25.46
2023-09-12T20:39:26.570Z,25.46
2023-09-12T20:41:54.751Z,25.51
2023-09-12T20:44:22.143Z,25.51
2023-09-12T20:46:49.523Z,25.52
2023-09-12T20:49:16.868Z,25.53
2023-09-12T20:51:49.254Z,25.49
2023-09-12T20:54:17.562Z,25.43
2023-09-12T20:56:45.574Z,25.42
2023-09-12T20:59:12.876Z,25.38
2023-09-12T21:01:40.200Z,25.40
2023-09-12T21:04:07.580Z,25.42
2023-09-12T21:06:35.206Z,25.28
2023-09-12T21:09:02.511Z,25.15
2023-09-12T21:11:29.738Z,25.27
2023-09-12T21:13:56.926Z,25.31
2023-09-12T21:16:24.290Z,25.27
2023-09-12T21:18:51.646Z,25.28
2023-09-12T21:21:18.843Z,25.22
2023-09-12T21:23:46.473Z,25.23
2023-09-12T21:26:13.925Z,25.27
2023-09-12T21:28:41.134Z,25.24
2023-09-12T21:31:08.395Z,25.20
2023-09-12T21:33:35.814Z,25.12
2023-09-12T21:36:03.956Z,25.02
2023-09-12T21:38:31.167Z,25.12
2023-09-12T21:40:59.426Z,25.07
2023-09-12T21:43:27.075Z,25.15
2023-09-12T21:45:54.390Z,25.09
2023-09-12T21:48:21.676Z,25.07
2023-09-12T21:50:48.897Z,25.07
2023-09-12T21:53:16.075Z,25.03
2023-09-12T21:55:43.281Z,24.74
2023-09-12T21:58:10.472Z,24.55
2023-09-12T22:00:37.833Z,24.40
2023-09-12T22:03:05.497Z,24.55
2023-09-12T22:05:33.583Z,24.40
2023-09-12T22:08:00.761Z,24.42
2023-09-12T22:10:28.001Z,24.38
2023-09-12T22:12:56.249Z,24.76
2023-09-12T22:15:23.432Z,24.99
2023-09-12T22:17:50.663Z,25.05
2023-09-12T22:20:17.953Z,25.08
2023-09-12T22:22:46.428Z,25.14
2023-09-12T22:25:14.204Z,25.15
2023-09-12T22:27:42.567Z,25.13
2023-09-12T22:30:10.332Z,25.13
2023-09-12T22:32:40.473Z,25.18
2023-09-12T22:35:07.986Z,25.19
2023-09-12T22:37:35.352Z,25.20
2023-09-12T22:40:02.666Z,25.20
2023-09-12T22:42:29.932Z,25.22
2023-09-12T22:44:57.194Z,25.24
2023-09-12T22:47:24.995Z,25.26
2023-09-12T22:49:52.692Z,25.27
2023-09-12T22:52:20.032Z,25.26
2023-09-12T22:54:47.393Z,25.27
2023-09-12T22:57:14.636Z,25.27
2023-09-12T22:59:41.824Z,25.31
2023-09-12T23:02:09.823Z,25.31
2023-09-12T23:04:37.161Z,25.29
2023-09-12T23:07:04.593Z,25.31
2023-09-12T23:09:31.960Z,25.31
2023-09-12T23:11:59.305Z,25.32
2023-09-12T23:14:29.564Z,25.31
2023-09-12T23:16:56.780Z,25.32
2023-09-12T23:23:12.531Z,25.33
2023-09-12T23:25:40.009Z,25.33
2023-09-12T23:28:07.780Z,25.33
2023-09-12T23:30:35.165Z,25.33
2023-09-12T23:33:02.409Z,25.33
2023-09-12T23:35:29.645Z,25.35
2023-09-12T23:37:56.872Z,25.36
2023-09-12T23:40:24.082Z,25.36
2023-09-12T23:42:51.408Z,25.42
2023-09-12T23:45:18.736Z,25.42
2023-09-12T23:47:45.956Z,25.45
2023-09-12T23:50:13.456Z,25.46
2023-09-12T23:52:40.808Z,25.45
2023-09-12T23:55:08.294Z,25.47
2023-09-12T23:57:35.573Z,25.44
